Richmond Hill, North Carolina
Current Conditions -  °F | °C
As of 10:15 AM on Friday 31 Oct 2014 (Local Time) from KMWK Reporting Station
Overcast Overcast  
Wind Chill: 48°   Ceiling: 3700
Heat Index: 48°   Visibility: 10mi
Dew Point: 40°   Wind: 0mph
Humidity: 75%   Direction: NA
Pressure: 29.97"   Gusts: NA
Location:  36.2374°N, 80.6343°W
Report Text: KMWK 311415Z AUTO 00000KT 10SM SCT024 OVC037 09/05 A2997 RMK AO2 T00880045
Loading
Personal Weather Stations






























Interactive Weather Map
Tropical Storm Tracking
New forecast layout! Learn more

10-Day Weather Forecast

Advertisements
Track Severe Weather on mobile